Moorhead, Minnesota
Current Conditions -  °F | °C
As of 11:45 PM on Monday 26 Jan 2015 (Local Time) from KFAR Reporting Station
Broken Clouds Broken Clouds  
Wind Chill: 19°   Ceiling: 700
Heat Index: 25°   Visibility: 10mi
Dew Point: 22°   Wind: 5mph
Humidity: 88%   Direction: 70°ENE
Pressure: 30.03"   Gusts: NA
Location:  46.88°N, 96.77°W
Report Text: KFAR 270545Z 07004KT 10SM BKN007 M04/M06 A3003 RMK AO2 I1000 T10391056
Loading
Personal Weather Stations






























Interactive Weather Map New forecast layout! Learn more

10-Day Weather Forecast

Advertisements
Track Severe Weather on mobile